LEPA/PMI METAR and TAF weather

Enter ICAO airport designator
Station Type Date Time Source
LEPA METAR 2020/04/04 04:30 UTC NOAA

LEPA 040430Z 00000KT 9999 FEW020 05/04 Q1019 NOSIG


Station Type Date Time Source
LEPA Decoded METAR 2020/04/04 04:30 UTC NOAA

Palma De Mallorca / Son San Juan, Spain (LEPA) 39-33N 002-44E 8M
Apr 04, 2020 - 12:30 AM EDT / 2020.04.04 0430 UTC
Wind: Calm:0
Visibility: greater than 7 mile(s):0
Sky conditions: mostly clear
Temperature: 41 F (5 C)
Dew Point: 39 F (4 C)
Relative Humidity: 93%
Pressure (altimeter): 30.09 in. Hg (1019 hPa)
ob: LEPA 040430Z 00000KT 9999 FEW020 05/04 Q1019 NOSIG
cycle: 4

Station Type Date Time Source
LEPA TAF 2020/04/03 18:27 UTC NOAA

TAF LEPA 031700Z 0318/0418 05008KT 9999 FEW020 TX20/0412Z TN07/0406Z
BECMG 0318/0320 VRB03KT
BECMG 0410/0412 22007KT

Example: see airport list